createdAt,value
2019-01-15T00:00:26.396Z,12.40
2019-01-15T00:01:26.384Z,13.60
2019-01-15T00:02:26.371Z,12.30
2019-01-15T00:03:26.352Z,11.00
2019-01-15T00:04:26.342Z,11.20
2019-01-15T00:05:26.330Z,12.30
2019-01-15T00:06:26.322Z,15.50
2019-01-15T00:07:26.309Z,13.50
2019-01-15T00:08:26.294Z,17.30
2019-01-15T00:09:26.281Z,15.90
2019-01-15T00:10:26.272Z,14.20
2019-01-15T00:11:26.259Z,12.80
2019-01-15T00:12:26.246Z,13.70
2019-01-15T00:13:26.233Z,14.00
2019-01-15T00:14:26.217Z,13.50
2019-01-15T00:15:26.204Z,11.90
2019-01-15T00:16:26.191Z,11.80
2019-01-15T00:17:26.179Z,12.50
2019-01-15T00:18:26.172Z,13.80
2019-01-15T00:19:26.157Z,12.70
2019-01-15T00:20:26.145Z,15.40
2019-01-15T00:21:26.134Z,11.80
2019-01-15T00:22:26.117Z,11.70
2019-01-15T00:23:26.105Z,13.10
2019-01-15T00:24:26.096Z,18.20
2019-01-15T00:25:26.085Z,15.50
2019-01-15T00:26:26.065Z,14.10
2019-01-15T00:27:26.052Z,17.30
2019-01-15T00:28:26.039Z,13.20
2019-01-15T00:29:26.027Z,14.60
2019-01-15T00:30:26.021Z,12.70
2019-01-15T00:31:26.006Z,13.00
2019-01-15T00:32:25.995Z,18.20
2019-01-15T00:33:25.982Z,13.90
2019-01-15T00:34:25.964Z,17.80
2019-01-15T00:35:25.951Z,11.90
2019-01-15T00:36:25.938Z,17.40
2019-01-15T00:37:25.925Z,15.30
2019-01-15T00:38:25.918Z,17.10
2019-01-15T00:39:25.909Z,18.10
2019-01-15T00:40:25.887Z,19.00
2019-01-15T00:41:25.876Z,13.60
2019-01-15T00:42:25.869Z,15.20
2019-01-15T00:43:27.142Z,13.70
2019-01-15T00:44:25.842Z,14.80
2019-01-15T00:45:25.829Z,14.70
2019-01-15T00:46:25.812Z,15.60
2019-01-15T00:47:25.797Z,15.60
2019-01-15T00:48:25.785Z,14.50
2019-01-15T00:49:25.775Z,17.00
2019-01-15T00:50:25.765Z,16.90
2019-01-15T00:51:25.752Z,16.40
2019-01-15T00:52:25.740Z,18.70
2019-01-15T00:53:25.725Z,17.60
2019-01-15T00:54:25.708Z,17.20
2019-01-15T00:55:25.694Z,14.90
2019-01-15T00:56:25.685Z,18.30
2019-01-15T00:57:25.675Z,18.80
2019-01-15T00:58:25.657Z,17.10
2019-01-15T00:59:25.642Z,13.90
2019-01-15T01:00:25.629Z,16.60
2019-01-15T01:01:25.618Z,25.30
2019-01-15T01:02:25.615Z,14.00
2019-01-15T01:03:25.602Z,18.30
2019-01-15T01:04:25.583Z,17.50
2019-01-15T01:05:25.571Z,15.60
2019-01-15T01:06:25.552Z,14.80
2019-01-15T01:07:25.538Z,14.90
2019-01-15T01:08:25.527Z,16.50
2019-01-15T01:09:25.513Z,15.90
2019-01-15T01:10:25.511Z,14.90
2019-01-15T01:11:25.493Z,15.80
2019-01-15T01:12:25.475Z,16.40
2019-01-15T01:13:25.462Z,16.00
2019-01-15T01:14:25.454Z,16.70
2019-01-15T01:15:25.438Z,20.70
2019-01-15T01:16:25.427Z,18.50
2019-01-15T01:17:25.415Z,21.30
2019-01-15T01:18:25.396Z,14.90
2019-01-15T01:19:25.384Z,17.40
2019-01-15T01:20:25.371Z,17.30
2019-01-15T01:21:25.362Z,18.60
2019-01-15T01:22:25.349Z,16.80
2019-01-15T01:23:25.336Z,13.20
2019-01-15T01:24:25.323Z,14.30
2019-01-15T01:25:25.309Z,20.70
2019-01-15T01:26:25.291Z,16.60
2019-01-15T01:27:25.282Z,19.60
2019-01-15T01:28:25.269Z,20.60
2019-01-15T01:29:25.257Z,19.50
2019-01-15T01:30:25.239Z,19.70
2019-01-15T01:31:25.235Z,21.60
2019-01-15T01:32:25.214Z,16.50
2019-01-15T01:33:25.200Z,18.30
2019-01-15T01:34:25.192Z,20.90
2019-01-15T01:35:25.178Z,17.60
2019-01-15T01:36:25.163Z,15.50
2019-01-15T01:37:25.147Z,17.30
2019-01-15T01:38:25.139Z,16.10
2019-01-15T01:39:25.124Z,14.10
2019-01-15T01:40:25.114Z,15.90
2019-01-15T01:41:25.100Z,16.60
2019-01-15T01:42:29.427Z,16.90
2019-01-15T01:43:25.070Z,20.50
2019-01-15T01:44:25.059Z,17.20
2019-01-15T01:45:25.047Z,18.70
2019-01-15T01:46:25.029Z,15.50
2019-01-15T01:47:25.016Z,18.40
2019-01-15T01:48:25.004Z,18.00
2019-01-15T01:49:24.990Z,13.70
2019-01-15T01:50:24.981Z,18.90
2019-01-15T01:51:24.967Z,19.10
2019-01-15T01:52:24.956Z,17.80
2019-01-15T01:53:24.946Z,14.20
2019-01-15T01:54:24.938Z,16.70
2019-01-15T01:55:24.912Z,14.70
2019-01-15T01:56:24.899Z,15.70
2019-01-15T01:57:24.886Z,17.90
2019-01-15T01:58:24.879Z,21.10
2019-01-15T01:59:24.865Z,18.90
2019-01-15T02:00:24.848Z,20.10
2019-01-15T02:01:24.836Z,11.60
2019-01-15T02:02:24.830Z,17.40
2019-01-15T02:03:24.813Z,13.50
2019-01-15T02:04:24.801Z,16.30
2019-01-15T02:05:24.789Z,15.20
2019-01-15T02:06:24.987Z,18.40
2019-01-15T02:07:24.763Z,18.10
2019-01-15T02:08:24.746Z,13.60
2019-01-15T02:09:24.733Z,17.50
2019-01-15T02:10:24.726Z,15.50
2019-01-15T02:11:24.713Z,17.20
2019-01-15T02:12:24.701Z,16.10
2019-01-15T02:13:24.691Z,15.30
2019-01-15T02:14:24.671Z,20.50
2019-01-15T02:15:24.658Z,16.40
2019-01-15T02:16:24.650Z,12.20
2019-01-15T02:17:24.637Z,20.00
2019-01-15T02:18:24.621Z,15.30
2019-01-15T02:19:24.607Z,13.10
2019-01-15T02:20:24.598Z,15.50
2019-01-15T02:21:24.582Z,15.40
2019-01-15T02:22:24.573Z,15.60
2019-01-15T02:23:24.561Z,18.20
2019-01-15T02:24:24.550Z,19.50
2019-01-15T02:25:24.536Z,16.60
2019-01-15T02:26:24.519Z,15.60
2019-01-15T02:27:24.507Z,15.30
2019-01-15T02:28:24.495Z,16.70
2019-01-15T02:29:24.482Z,13.60
2019-01-15T02:30:24.476Z,15.70
2019-01-15T02:31:24.462Z,12.50
2019-01-15T02:32:24.446Z,21.10
2019-01-15T02:33:24.433Z,16.10
2019-01-15T02:34:24.427Z,15.10
2019-01-15T02:35:24.412Z,17.10
2019-01-15T02:36:24.400Z,23.50
2019-01-15T02:37:24.387Z,19.60
2019-01-15T02:38:24.371Z,15.30
2019-01-15T02:39:24.359Z,14.10
2019-01-15T02:40:24.347Z,17.20
2019-01-15T02:41:24.335Z,12.80
2019-01-15T02:42:24.327Z,18.20
2019-01-15T02:43:24.316Z,19.20
2019-01-15T02:44:24.302Z,20.20
2019-01-15T02:45:24.290Z,17.90
2019-01-15T02:46:24.275Z,17.40
2019-01-15T02:47:24.264Z,18.20
2019-01-15T02:48:24.251Z,18.30
2019-01-15T02:49:24.240Z,17.20
2019-01-15T02:50:24.229Z,15.60
2019-01-15T02:51:24.216Z,15.50
2019-01-15T02:52:24.200Z,20.10
2019-01-15T02:53:24.187Z,15.50
2019-01-15T02:54:24.179Z,15.30
2019-01-15T02:55:24.166Z,22.20
2019-01-15T02:56:24.156Z,20.50
2019-01-15T02:57:24.143Z,19.80
2019-01-15T02:58:24.127Z,18.70
2019-01-15T02:59:24.115Z,20.70
2019-01-15T03:00:24.101Z,23.00
2019-01-15T03:01:24.090Z,18.00
2019-01-15T03:02:24.083Z,17.80
2019-01-15T03:03:24.070Z,20.70
2019-01-15T03:04:24.056Z,18.50
2019-01-15T03:05:24.041Z,19.10
2019-01-15T03:06:24.034Z,19.40
2019-01-15T03:07:24.021Z,16.90
2019-01-15T03:08:24.009Z,17.30
2019-01-15T03:09:23.999Z,20.10
2019-01-15T03:10:23.985Z,18.40
2019-01-15T03:11:23.970Z,17.80
2019-01-15T03:12:23.957Z,16.10
2019-01-15T03:13:23.946Z,17.40
2019-01-15T03:14:23.938Z,19.20
2019-01-15T03:15:23.953Z,20.50
2019-01-15T03:16:23.913Z,21.10
2019-01-15T03:17:23.904Z,20.70
2019-01-15T03:18:23.890Z,18.90
2019-01-15T03:19:23.872Z,17.40
2019-01-15T03:20:23.864Z,17.90
2019-01-15T03:21:23.853Z,16.60
2019-01-15T03:22:23.837Z,15.00
2019-01-15T03:23:23.826Z,16.50
2019-01-15T03:24:23.811Z,17.10
2019-01-15T03:25:23.800Z,18.70
2019-01-15T03:26:23.794Z,17.60
2019-01-15T03:27:23.781Z,18.30
2019-01-15T03:28:23.770Z,16.30
2019-01-15T03:29:23.758Z,21.90
2019-01-15T03:30:23.792Z,18.40
2019-01-15T03:31:23.737Z,18.30
2019-01-15T03:32:23.717Z,18.10
2019-01-15T03:33:23.704Z,19.60
2019-01-15T03:34:23.698Z,16.60
2019-01-15T03:35:23.684Z,18.20
2019-01-15T03:36:23.675Z,19.20
2019-01-15T03:37:23.658Z,14.90
2019-01-15T03:38:23.650Z,20.70
2019-01-15T03:39:23.638Z,18.50
2019-01-15T03:40:23.626Z,18.90
2019-01-15T03:41:23.614Z,15.20
2019-01-15T03:42:23.599Z,15.50
2019-01-15T03:43:23.586Z,14.60
2019-01-15T03:44:23.576Z,16.60
2019-01-15T03:45:23.563Z,18.70
2019-01-15T03:46:23.554Z,24.80
2019-01-15T03:47:23.545Z,16.50
2019-01-15T03:48:23.531Z,16.00
2019-01-15T03:49:23.520Z,17.10
2019-01-15T03:50:23.504Z,17.80
2019-01-15T03:51:23.491Z,19.90
2019-01-15T03:52:23.484Z,15.40
2019-01-15T03:53:23.488Z,20.70
2019-01-15T03:54:23.456Z,19.00
2019-01-15T03:55:23.444Z,18.20
2019-01-15T03:56:23.433Z,17.00
2019-01-15T03:57:23.467Z,18.70
2019-01-15T03:58:23.417Z,19.60
2019-01-15T03:59:23.400Z,19.50
2019-01-15T04:00:23.389Z,18.10
2019-01-15T04:01:23.428Z,17.30
2019-01-15T04:02:23.363Z,17.30
2019-01-15T04:03:23.349Z,18.50
2019-01-15T04:04:23.338Z,19.10
2019-01-15T04:05:23.328Z,15.60
2019-01-15T04:06:23.320Z,21.30
2019-01-15T04:07:23.306Z,20.00
2019-01-15T04:08:23.289Z,23.60
2019-01-15T04:09:23.279Z,22.30
2019-01-15T04:10:23.272Z,17.90
2019-01-15T04:11:23.259Z,16.20
2019-01-15T04:12:23.248Z,16.10
2019-01-15T04:13:23.235Z,19.10
2019-01-15T04:14:23.220Z,20.00
2019-01-15T04:15:23.207Z,17.10
2019-01-15T04:16:23.195Z,18.90
2019-01-15T04:17:23.184Z,23.10
2019-01-15T04:18:23.197Z,17.60
2019-01-15T04:19:23.165Z,17.70
2019-01-15T04:20:23.163Z,15.60
2019-01-15T04:21:23.145Z,12.90
2019-01-15T04:22:23.125Z,18.70
2019-01-15T04:23:23.110Z,19.40
2019-01-15T04:24:23.106Z,16.60
2019-01-15T04:25:23.093Z,17.30
2019-01-15T04:26:23.077Z,20.00
2019-01-15T04:27:23.064Z,17.80
2019-01-15T04:28:23.052Z,17.50
2019-01-15T04:29:23.041Z,13.70
2019-01-15T04:30:23.032Z,17.50
2019-01-15T04:31:23.020Z,20.40
2019-01-15T04:32:23.009Z,20.50
2019-01-15T04:33:22.998Z,16.50
2019-01-15T04:34:22.981Z,16.00
2019-01-15T04:35:22.969Z,22.00
2019-01-15T04:36:22.957Z,17.80
2019-01-15T04:37:22.943Z,14.00
2019-01-15T04:38:22.938Z,14.60
2019-01-15T04:39:22.925Z,17.40
2019-01-15T04:40:22.908Z,15.10
2019-01-15T04:41:22.895Z,23.50
2019-01-15T04:42:22.889Z,19.80
2019-01-15T04:43:22.876Z,22.80
2019-01-15T04:44:22.862Z,16.70
2019-01-15T04:45:22.854Z,25.90
2019-01-15T04:46:22.836Z,22.00
2019-01-15T04:47:22.823Z,22.10
2019-01-15T04:48:22.810Z,18.10
2019-01-15T04:49:22.799Z,18.90
2019-01-15T04:50:22.792Z,18.90
2019-01-15T04:51:22.779Z,21.10
2019-01-15T04:52:22.766Z,20.20
2019-01-15T04:53:22.754Z,22.60
2019-01-15T04:54:22.741Z,19.00
2019-01-15T04:55:22.739Z,20.20
2019-01-15T04:56:22.717Z,19.20
2019-01-15T04:57:22.705Z,17.40
2019-01-15T04:58:22.688Z,21.90
2019-01-15T04:59:22.676Z,20.30
2019-01-15T05:00:22.675Z,26.70
2019-01-15T05:01:22.652Z,18.70
2019-01-15T05:02:22.647Z,20.20
2019-01-15T05:03:22.630Z,19.90
2019-01-15T05:04:22.620Z,23.80
2019-01-15T05:05:22.608Z,22.90
2019-01-15T05:06:22.590Z,26.60
2019-01-15T05:07:22.577Z,23.10
2019-01-15T05:08:22.565Z,23.30
2019-01-15T05:09:22.553Z,20.30
2019-01-15T05:10:22.544Z,24.50
2019-01-15T05:11:22.533Z,23.70
2019-01-15T05:12:22.515Z,22.50
2019-01-15T05:13:27.392Z,25.70
2019-01-15T05:14:22.494Z,24.50
2019-01-15T05:15:22.482Z,29.50
2019-01-15T05:16:22.470Z,27.70
2019-01-15T05:17:22.458Z,23.50
2019-01-15T05:18:22.441Z,20.50
2019-01-15T05:19:22.428Z,32.30
2019-01-15T05:20:22.416Z,29.10
2019-01-15T05:21:22.404Z,27.70
2019-01-15T05:22:22.399Z,26.10
2019-01-15T05:23:22.382Z,26.90
2019-01-15T05:24:22.370Z,28.30
2019-01-15T05:25:22.356Z,28.40
2019-01-15T05:26:22.344Z,27.20
2019-01-15T05:27:22.332Z,31.10
2019-01-15T05:28:22.320Z,29.10
2019-01-15T05:29:22.310Z,31.20
2019-01-15T05:30:22.290Z,31.40
2019-01-15T05:31:22.277Z,28.40
2019-01-15T05:32:22.270Z,32.50
2019-01-15T05:33:22.253Z,30.00
2019-01-15T05:34:22.249Z,30.20
2019-01-15T05:35:22.232Z,28.20
2019-01-15T05:36:22.220Z,34.50
2019-01-15T05:37:22.210Z,31.10
2019-01-15T05:38:22.191Z,29.90
2019-01-15T05:39:22.177Z,27.20
2019-01-15T05:40:22.176Z,29.20
2019-01-15T05:41:22.154Z,28.80
2019-01-15T05:42:22.146Z,30.00
2019-01-15T05:43:22.184Z,31.10
2019-01-15T05:44:22.118Z,28.70
2019-01-15T05:45:22.103Z,26.60
2019-01-15T05:46:22.096Z,26.00
2019-01-15T05:47:22.082Z,26.00
2019-01-15T05:48:22.070Z,25.30
2019-01-15T05:49:22.057Z,33.10
2019-01-15T05:50:22.042Z,27.00
2019-01-15T05:51:22.028Z,23.80
2019-01-15T05:52:22.017Z,28.10
2019-01-15T05:53:22.006Z,22.60
2019-01-15T05:54:21.998Z,29.70
2019-01-15T05:55:21.988Z,30.30
2019-01-15T05:56:21.976Z,28.70
2019-01-15T05:57:21.960Z,26.90
2019-01-15T05:58:21.943Z,24.70
2019-01-15T05:59:21.931Z,24.40
2019-01-15T06:00:21.922Z,27.80
2019-01-15T06:01:21.911Z,23.10
2019-01-15T06:02:21.896Z,26.40
2019-01-15T06:03:21.882Z,23.40
2019-01-15T06:04:21.872Z,27.40
2019-01-15T06:05:21.859Z,24.90
2019-01-15T06:06:21.852Z,24.00
2019-01-15T06:07:21.843Z,25.70
2019-01-15T06:08:21.828Z,22.80
2019-01-15T06:09:21.816Z,28.40
2019-01-15T06:10:21.799Z,24.70
2019-01-15T06:11:21.786Z,26.50
2019-01-15T06:12:21.775Z,20.20
2019-01-15T06:13:21.763Z,24.60
2019-01-15T06:14:21.756Z,27.10
2019-01-15T06:15:21.743Z,25.70
2019-01-15T06:16:21.727Z,26.80
2019-01-15T06:17:21.717Z,28.30
2019-01-15T06:18:21.710Z,28.40
2019-01-15T06:19:21.696Z,28.00
2019-01-15T06:20:21.685Z,29.40
2019-01-15T06:21:21.674Z,24.60
2019-01-15T06:22:21.657Z,26.50
2019-01-15T06:23:21.645Z,21.40
2019-01-15T06:24:21.631Z,27.00
2019-01-15T06:25:21.624Z,27.20
2019-01-15T06:26:21.616Z,25.60
2019-01-15T06:27:21.602Z,25.10
2019-01-15T06:28:21.590Z,27.40
2019-01-15T06:29:21.578Z,28.30
2019-01-15T06:30:21.562Z,27.30
2019-01-15T06:31:21.550Z,22.10
2019-01-15T06:32:21.543Z,27.20
2019-01-15T06:33:21.530Z,28.90
2019-01-15T06:34:21.516Z,24.80
2019-01-15T06:35:21.503Z,29.20
2019-01-15T06:36:21.493Z,30.40
2019-01-15T06:37:21.482Z,21.60
2019-01-15T06:38:21.474Z,27.80
2019-01-15T06:39:21.462Z,29.30
2019-01-15T06:40:21.452Z,23.50
2019-01-15T06:41:21.438Z,27.50
2019-01-15T06:42:21.424Z,28.90
2019-01-15T06:43:21.409Z,27.70
2019-01-15T06:44:21.398Z,26.80
2019-01-15T06:45:21.390Z,27.50
2019-01-15T06:46:21.379Z,31.60
2019-01-15T06:47:21.367Z,29.10
2019-01-15T06:48:21.351Z,25.30
2019-01-15T06:49:21.339Z,28.90
2019-01-15T06:50:21.333Z,29.50
2019-01-15T06:51:21.322Z,24.90
2019-01-15T06:52:21.309Z,26.30
2019-01-15T06:53:21.298Z,26.40
2019-01-15T06:54:21.284Z,28.50
2019-01-15T06:55:21.268Z,30.60
2019-01-15T06:56:21.257Z,25.60
2019-01-15T06:57:21.246Z,26.20
2019-01-15T06:58:21.239Z,31.50
2019-01-15T06:59:21.226Z,22.90
2019-01-15T07:00:21.216Z,25.20
2019-01-15T07:01:21.206Z,24.20
2019-01-15T07:02:21.188Z,29.60
2019-01-15T07:03:21.176Z,30.10
2019-01-15T07:04:21.169Z,28.30
2019-01-15T07:05:21.158Z,27.40
2019-01-15T07:06:21.141Z,21.70
2019-01-15T07:07:21.128Z,27.60
2019-01-15T07:08:21.120Z,26.80
2019-01-15T07:09:21.108Z,24.90
2019-01-15T07:10:21.100Z,30.50
2019-01-15T07:11:21.086Z,26.10
2019-01-15T07:12:21.077Z,26.90
2019-01-15T07:13:21.064Z,34.20
2019-01-15T07:14:21.048Z,28.80
2019-01-15T07:15:21.038Z,28.20
2019-01-15T07:16:21.024Z,24.90
2019-01-15T07:17:21.014Z,27.30
2019-01-15T07:18:21.008Z,29.20
2019-01-15T07:19:20.995Z,28.00
2019-01-15T07:20:20.981Z,27.80
2019-01-15T07:21:20.967Z,29.60
2019-01-15T07:22:20.961Z,25.80
2019-01-15T07:23:20.949Z,23.40
2019-01-15T07:24:20.936Z,23.70
2019-01-15T07:25:20.926Z,25.30
2019-01-15T07:26:20.911Z,23.00
2019-01-15T07:27:20.898Z,23.10
2019-01-15T07:28:20.885Z,23.20
2019-01-15T07:29:20.878Z,25.30
2019-01-15T07:30:20.869Z,29.20
2019-01-15T07:31:20.856Z,27.90
2019-01-15T07:32:20.846Z,28.00
2019-01-15T07:33:20.860Z,28.20
2019-01-15T07:34:20.818Z,25.30
2019-01-15T07:35:20.804Z,25.10
2019-01-15T07:36:20.800Z,27.30
2019-01-15T07:37:20.789Z,29.90
2019-01-15T07:38:20.772Z,26.00
2019-01-15T07:39:20.760Z,27.00
2019-01-15T07:40:20.749Z,26.40
2019-01-15T07:41:20.746Z,31.90
2019-01-15T07:42:20.729Z,25.30
2019-01-15T07:43:20.719Z,25.80
2019-01-15T07:44:20.707Z,25.00
2019-01-15T07:45:20.696Z,26.30
2019-01-15T07:46:20.679Z,24.70
2019-01-15T07:47:20.668Z,26.50
2019-01-15T07:48:20.656Z,24.60
2019-01-15T07:49:20.645Z,27.40
2019-01-15T07:50:20.641Z,27.40
2019-01-15T07:51:20.627Z,28.70
2019-01-15T07:52:21.601Z,26.40
2019-01-15T07:53:20.599Z,26.60
2019-01-15T07:54:20.594Z,23.10
2019-01-15T07:55:20.582Z,26.60
2019-01-15T07:56:20.569Z,23.10
2019-01-15T07:57:20.558Z,28.70
2019-01-15T07:58:20.542Z,27.60
2019-01-15T07:59:20.531Z,23.70
2019-01-15T08:00:20.519Z,28.70
2019-01-15T08:01:20.509Z,25.40
2019-01-15T08:02:20.505Z,28.40
2019-01-15T08:03:20.491Z,25.60
2019-01-15T08:04:20.478Z,27.20
2019-01-15T08:05:20.467Z,24.70
2019-01-15T08:06:20.452Z,30.00
2019-01-15T08:07:20.440Z,25.60
2019-01-15T08:08:20.435Z,27.90
2019-01-15T08:09:20.425Z,25.40
2019-01-15T08:10:20.410Z,28.60
2019-01-15T08:11:20.396Z,28.00
2019-01-15T08:12:20.385Z,27.00
2019-01-15T08:13:20.376Z,28.80
2019-01-15T08:14:20.370Z,31.10
2019-01-15T08:15:20.360Z,25.80
2019-01-15T08:16:20.348Z,30.00
2019-01-15T08:17:20.336Z,26.80
2019-01-15T08:18:20.320Z,25.80
2019-01-15T08:19:20.308Z,27.50
2019-01-15T08:20:20.297Z,28.60
2019-01-15T08:21:20.288Z,29.30
2019-01-15T08:22:20.281Z,26.20
2019-01-15T08:23:20.268Z,27.10
2019-01-15T08:24:20.255Z,28.70
2019-01-15T08:25:20.244Z,28.90
2019-01-15T08:26:20.238Z,26.50
2019-01-15T08:27:20.226Z,28.20
2019-01-15T08:28:20.216Z,28.60
2019-01-15T08:29:20.206Z,27.90
2019-01-15T08:30:20.190Z,29.70
2019-01-15T08:31:20.180Z,29.80
2019-01-15T08:32:20.169Z,31.60
2019-01-15T08:33:20.159Z,31.20
2019-01-15T08:34:20.153Z,27.60
2019-01-15T08:35:20.143Z,28.40
2019-01-15T08:36:20.132Z,28.40
2019-01-15T08:37:20.122Z,26.30
2019-01-15T08:38:20.106Z,25.40
2019-01-15T08:39:20.096Z,28.00
2019-01-15T08:40:20.090Z,37.40
2019-01-15T08:41:20.081Z,26.30
2019-01-15T08:42:20.065Z,32.60
2019-01-15T08:43:20.058Z,27.00
2019-01-15T08:44:20.064Z,26.90
2019-01-15T08:45:20.035Z,32.50
2019-01-15T08:46:20.030Z,29.80
2019-01-15T08:47:20.033Z,38.50
2019-01-15T08:48:20.010Z,31.10
2019-01-15T08:49:20.000Z,30.10
2019-01-15T08:50:19.985Z,32.50
2019-01-15T08:51:19.974Z,28.30
2019-01-15T08:52:19.966Z,32.30
2019-01-15T08:53:19.956Z,30.80
2019-01-15T08:54:19.950Z,34.40
2019-01-15T08:55:19.937Z,30.00
2019-01-15T08:56:19.925Z,29.30
2019-01-15T08:57:19.915Z,29.60
2019-01-15T08:58:19.909Z,32.10
2019-01-15T08:59:19.898Z,32.80
2019-01-15T09:00:19.889Z,36.20
2019-01-15T09:01:19.880Z,32.70
2019-01-15T09:02:19.865Z,31.90
2019-01-15T09:03:19.855Z,36.00
2019-01-15T09:04:19.845Z,31.50
2019-01-15T09:05:19.835Z,28.10
2019-01-15T09:06:19.829Z,33.30
2019-01-15T09:07:19.818Z,29.40
2019-01-15T09:08:19.810Z,32.60
2019-01-15T09:09:19.800Z,32.90
2019-01-15T09:10:19.785Z,27.10
2019-01-15T09:11:19.775Z,29.70
2019-01-15T09:12:19.771Z,31.80
2019-01-15T09:13:19.765Z,27.50
2019-01-15T09:14:26.568Z,32.60
2019-01-15T09:15:19.737Z,37.00
2019-01-15T09:16:19.728Z,32.90
2019-01-15T09:17:19.717Z,28.60
2019-01-15T09:18:19.711Z,32.10
2019-01-15T09:19:19.703Z,33.60
2019-01-15T09:20:19.692Z,31.00
2019-01-15T09:21:19.684Z,27.80
2019-01-15T09:22:19.672Z,30.90
2019-01-15T09:23:19.659Z,27.10
2019-01-15T09:24:19.649Z,34.20
2019-01-15T09:25:19.641Z,28.70
2019-01-15T09:26:19.638Z,30.50
2019-01-15T09:27:19.626Z,28.70
2019-01-15T09:28:19.612Z,31.80
2019-01-15T09:29:19.602Z,33.60
2019-01-15T09:30:19.599Z,29.60
2019-01-15T09:31:19.588Z,31.70
2019-01-15T09:32:19.581Z,28.80
2019-01-15T09:33:19.570Z,28.50
2019-01-15T09:34:19.556Z,27.60
2019-01-15T09:35:19.546Z,33.60
2019-01-15T09:36:19.541Z,30.00
2019-01-15T09:37:19.528Z,26.50
2019-01-15T09:38:19.522Z,30.10
2019-01-15T09:39:19.513Z,30.90
2019-01-15T09:40:19.514Z,33.90
2019-01-15T09:41:19.497Z,30.00
2019-01-15T09:42:19.483Z,32.00
2019-01-15T09:43:19.474Z,34.30
2019-01-15T09:44:19.469Z,34.00
2019-01-15T09:45:19.462Z,33.80
2019-01-15T09:46:19.447Z,33.20
2019-01-15T09:47:19.438Z,32.30
2019-01-15T09:48:19.428Z,28.90
2019-01-15T09:49:19.419Z,29.90
2019-01-15T09:50:19.725Z,29.70
2019-01-15T09:51:19.406Z,26.90
2019-01-15T09:52:20.593Z,32.80
2019-01-15T09:53:19.390Z,33.40
2019-01-15T09:54:19.376Z,35.30
2019-01-15T09:55:19.368Z,28.10
2019-01-15T09:56:19.359Z,27.40
2019-01-15T09:57:19.350Z,29.40
2019-01-15T09:58:19.347Z,29.20
2019-01-15T09:59:19.337Z,33.00
2019-01-15T10:00:19.326Z,31.80
2019-01-15T10:01:19.315Z,27.00
2019-01-15T10:02:19.311Z,28.70
2019-01-15T10:03:19.302Z,31.30
2019-01-15T10:04:19.293Z,28.60
2019-01-15T10:05:19.287Z,28.90
2019-01-15T10:06:19.270Z,29.00
2019-01-15T10:07:19.261Z,31.50
2019-01-15T10:08:19.255Z,29.80
2019-01-15T10:09:19.247Z,34.80
2019-01-15T10:10:19.243Z,27.00
2019-01-15T10:11:19.231Z,30.60
2019-01-15T10:12:19.221Z,30.90
2019-01-15T10:13:19.216Z,29.60
2019-01-15T10:14:19.200Z,27.60
2019-01-15T10:15:19.196Z,27.30
2019-01-15T10:16:19.188Z,32.50
2019-01-15T10:17:19.179Z,28.10
2019-01-15T10:18:19.166Z,32.50
2019-01-15T10:19:19.154Z,30.00
2019-01-15T10:20:19.147Z,28.40
2019-01-15T10:21:19.139Z,28.10
2019-01-15T10:22:19.134Z,29.30
2019-01-15T10:23:19.125Z,29.30
2019-01-15T10:24:19.117Z,28.00
2019-01-15T10:25:19.108Z,24.80
2019-01-15T10:26:19.095Z,32.40
2019-01-15T10:27:19.086Z,25.80
2019-01-15T10:28:19.077Z,27.60
2019-01-15T10:29:19.070Z,29.30
2019-01-15T10:30:19.063Z,30.50
2019-01-15T10:31:19.059Z,33.00
2019-01-15T10:32:19.041Z,27.60
2019-01-15T10:33:19.034Z,32.20
2019-01-15T10:34:19.030Z,22.00
2019-01-15T10:35:19.020Z,24.30
2019-01-15T10:36:19.013Z,23.30
2019-01-15T10:37:19.004Z,22.50
2019-01-15T10:38:18.991Z,24.00
2019-01-15T10:39:18.981Z,26.50
2019-01-15T10:40:18.974Z,26.00
2019-01-15T10:41:18.966Z,25.30
2019-01-15T10:42:18.964Z,24.90
2019-01-15T10:43:18.952Z,28.00
2019-01-15T10:44:18.946Z,25.40
2019-01-15T10:45:18.934Z,26.60
2019-01-15T10:46:21.378Z,27.50
2019-01-15T10:47:18.924Z,24.30
2019-01-15T10:48:18.909Z,23.30
2019-01-15T10:49:18.902Z,23.80
2019-01-15T10:50:18.889Z,27.40
2019-01-15T10:51:18.878Z,24.80
2019-01-15T10:52:18.871Z,23.80
2019-01-15T10:53:18.862Z,21.90
2019-01-15T10:54:18.860Z,28.40
2019-01-15T10:55:18.849Z,26.40
2019-01-15T10:56:18.843Z,23.20
2019-01-15T10:57:18.834Z,23.70
2019-01-15T10:58:18.821Z,19.90
2019-01-15T10:59:18.811Z,25.40
2019-01-15T11:00:18.803Z,24.60
2019-01-15T11:01:18.797Z,22.00
2019-01-15T11:02:18.791Z,24.10
2019-01-15T11:03:18.782Z,27.70
2019-01-15T11:04:18.771Z,19.70
2019-01-15T11:05:18.765Z,20.60
2019-01-15T11:06:18.759Z,18.50
2019-01-15T11:07:18.749Z,22.60
2019-01-15T11:08:18.742Z,19.20
2019-01-15T11:09:18.737Z,15.90
2019-01-15T11:10:18.720Z,18.80
2019-01-15T11:11:18.712Z,19.90
2019-01-15T11:12:18.706Z,17.40
2019-01-15T11:13:18.697Z,18.70
2019-01-15T11:14:18.694Z,14.20
2019-01-15T11:15:18.683Z,16.80
2019-01-15T11:16:18.677Z,20.40
2019-01-15T11:17:18.669Z,17.80
2019-01-15T11:18:18.655Z,16.10
2019-01-15T11:19:18.648Z,23.20
2019-01-15T11:20:18.656Z,19.70
2019-01-15T11:21:18.636Z,15.90
2019-01-15T11:22:18.623Z,20.40
2019-01-15T11:23:18.615Z,14.00
2019-01-15T11:24:18.606Z,19.20
2019-01-15T11:25:18.598Z,18.50
2019-01-15T11:26:18.595Z,22.00
2019-01-15T11:27:18.587Z,15.70
2019-01-15T11:28:18.577Z,14.80
2019-01-15T11:29:18.569Z,13.20
2019-01-15T11:30:18.557Z,20.10
2019-01-15T11:31:18.549Z,16.80
2019-01-15T11:32:18.542Z,18.40
2019-01-15T11:33:18.533Z,13.30
2019-01-15T11:34:18.530Z,15.60
2019-01-15T11:35:18.521Z,14.40
2019-01-15T11:36:18.510Z,14.20
2019-01-15T11:37:18.502Z,15.50
2019-01-15T11:38:18.498Z,17.50
2019-01-15T11:39:18.489Z,18.80
2019-01-15T11:40:18.483Z,13.60
2019-01-15T11:41:18.473Z,13.30
2019-01-15T11:42:18.465Z,14.20
2019-01-15T11:43:18.452Z,13.00
2019-01-15T11:44:18.443Z,12.10
2019-01-15T11:45:18.437Z,17.80
2019-01-15T11:46:18.432Z,14.70
2019-01-15T11:47:18.423Z,9.90
2019-01-15T11:48:18.416Z,16.30
2019-01-15T11:49:18.408Z,11.60
2019-01-15T11:50:18.397Z,16.30
2019-01-15T11:51:18.387Z,9.50
2019-01-15T11:52:18.385Z,17.10
2019-01-15T11:53:18.376Z,9.10
2019-01-15T11:54:18.364Z,10.40
2019-01-15T11:55:18.356Z,14.10
2019-01-15T11:56:18.346Z,11.50
2019-01-15T11:57:18.339Z,8.40
2019-01-15T11:58:18.335Z,11.20
2019-01-15T11:59:18.326Z,11.00
2019-01-15T12:00:18.317Z,13.10
2019-01-15T12:01:18.309Z,12.30
2019-01-15T12:02:22.214Z,12.50
2019-01-15T12:03:18.289Z,9.60
2019-01-15T12:04:18.282Z,12.10
2019-01-15T12:05:18.273Z,14.70
2019-01-15T12:06:18.272Z,12.30
2019-01-15T12:07:18.262Z,11.80
2019-01-15T12:08:18.249Z,13.00
2019-01-15T12:09:18.245Z,12.10
2019-01-15T12:10:18.239Z,9.30
2019-01-15T12:11:18.230Z,8.80
2019-01-15T12:12:18.222Z,10.30
2019-01-15T12:13:18.213Z,11.30
2019-01-15T12:14:18.202Z,7.60
2019-01-15T12:15:18.192Z,11.50
2019-01-15T12:16:18.184Z,10.30
2019-01-15T12:17:18.179Z,10.40
2019-01-15T12:18:18.175Z,13.70
2019-01-15T12:19:18.165Z,6.80
2019-01-15T12:20:18.157Z,12.40
2019-01-15T12:21:18.152Z,10.30
2019-01-15T12:22:18.136Z,11.60
2019-01-15T12:23:18.128Z,9.60
2019-01-15T12:24:18.124Z,8.10
2019-01-15T12:25:18.119Z,12.30
2019-01-15T12:26:18.105Z,7.50
2019-01-15T12:27:18.098Z,13.70
2019-01-15T12:28:18.089Z,10.70
2019-01-15T12:29:18.080Z,9.80
2019-01-15T12:30:18.078Z,11.20
2019-01-15T12:31:18.070Z,11.80
2019-01-15T12:32:18.063Z,8.80
2019-01-15T12:33:18.054Z,6.80
2019-01-15T12:34:18.042Z,7.90
2019-01-15T12:35:18.033Z,12.60
2019-01-15T12:36:18.024Z,11.00
2019-01-15T12:37:18.015Z,11.00
2019-01-15T12:38:18.012Z,10.20
2019-01-15T12:39:18.004Z,9.60
2019-01-15T12:40:17.992Z,10.30
2019-01-15T12:41:17.983Z,11.90
2019-01-15T12:42:17.979Z,8.90
2019-01-15T12:43:17.971Z,10.60
2019-01-15T12:44:17.963Z,8.40
2019-01-15T12:45:18.365Z,8.80
2019-01-15T12:46:17.943Z,10.70
2019-01-15T12:47:17.933Z,9.60
2019-01-15T12:48:17.925Z,11.20
2019-01-15T12:49:17.917Z,8.30
2019-01-15T12:50:17.913Z,8.90
2019-01-15T12:51:17.905Z,14.00
2019-01-15T12:52:17.897Z,9.40
2019-01-15T12:53:17.888Z,5.80